Terminal Aerodrome Forecast
Issued by NWS

Home | Current Version | Previous Version | Text Only | Print | Product List | Glossary On
Versions: 1 2 3 4 5 6 7 8 9 10 11 12 13
000
FTUS43 KJKL 252032 AAA
TAFSME
TAF AMD
KSME 252032Z 2521/2618 23009G18KT P6SM SCT020 BKN070
     FM252330 24009KT P6SM VCTS BKN030CB
     FM260400 35008KT 5SM SHRA VCTS BKN010CB OVC030
     FM260700 35008KT 6SM BR OVC002=

USA.gov is the U.S. government's official web portal to all federal, state and local government web resources and services.